createdAt,value
2022-09-28T00:00:04.028Z,99035.34
2022-09-28T00:02:41.960Z,99048.06
2022-09-28T00:05:14.859Z,98992.09
2022-09-28T00:07:44.979Z,99056.56
2022-09-28T00:10:14.500Z,99048.06
2022-09-28T00:12:44.153Z,99031.94
2022-09-28T00:15:13.795Z,99055.69
2022-09-28T00:17:44.744Z,99049.75
2022-09-28T00:20:18.096Z,99053.13
2022-09-28T00:22:47.817Z,99045.50
2022-09-28T00:25:18.306Z,99010.75
2022-09-28T00:27:52.729Z,99032.78
2022-09-28T00:30:22.752Z,99037.91
2022-09-28T00:32:52.416Z,99028.53
2022-09-28T00:35:24.522Z,99036.13
2022-09-28T00:37:54.101Z,98991.16
2022-09-28T00:40:23.707Z,99029.28
2022-09-28T00:42:53.290Z,98997.97
2022-09-28T00:45:24.430Z,99025.03
2022-09-28T00:47:59.528Z,98961.44
2022-09-28T00:50:33.910Z,99017.34
2022-09-28T00:53:09.353Z,98999.59
2022-09-28T00:55:43.250Z,99004.66
2022-09-28T00:58:16.028Z,98985.19
2022-09-28T01:00:45.944Z,99015.69
2022-09-28T01:03:16.496Z,99016.59
2022-09-28T01:05:51.108Z,98941.22
2022-09-28T01:08:23.309Z,98997.09
2022-09-28T01:10:53.595Z,98992.88
2022-09-28T01:13:24.901Z,98997.94
2022-09-28T01:16:02.194Z,99009.00
2022-09-28T01:18:41.943Z,98997.16
2022-09-28T01:21:19.956Z,98981.06
2022-09-28T01:24:22.485Z,98979.38
2022-09-28T01:27:02.284Z,98991.25
2022-09-28T01:29:51.692Z,99001.41
2022-09-28T01:32:33.439Z,98966.66
2022-09-28T01:35:07.954Z,98963.25
2022-09-28T01:37:44.367Z,98978.50
2022-09-28T01:40:16.310Z,98986.13
2022-09-28T01:42:51.610Z,98937.78
2022-09-28T01:45:26.530Z,98918.25
2022-09-28T01:48:02.909Z,98951.22
2022-09-28T01:50:38.101Z,98901.22
2022-09-28T01:53:15.098Z,98918.97
2022-09-28T01:55:50.625Z,98964.66
2022-09-28T01:58:30.967Z,98954.50
2022-09-28T02:01:06.015Z,98932.47
2022-09-28T02:03:42.405Z,98879.06
2022-09-28T02:06:19.261Z,98942.53
2022-09-28T02:08:54.312Z,98928.97
2022-09-28T02:11:29.326Z,98923.88
2022-09-28T02:14:05.799Z,98928.06
2022-09-28T02:16:42.226Z,98929.81
2022-09-28T02:19:16.813Z,98925.53
2022-09-28T02:21:51.771Z,98879.03
2022-09-28T02:24:29.777Z,98923.06
2022-09-28T02:27:05.060Z,98861.28
2022-09-28T02:29:40.069Z,98879.81
2022-09-28T02:32:09.842Z,98901.00
2022-09-28T02:34:39.451Z,98923.81
2022-09-28T02:37:09.586Z,98915.34
2022-09-28T02:39:40.179Z,98922.09
2022-09-28T02:42:18.820Z,98922.97
2022-09-28T02:45:07.784Z,98912.84
2022-09-28T02:47:53.386Z,98903.53
2022-09-28T02:50:33.269Z,98903.53
2022-09-28T02:53:38.165Z,98883.28
2022-09-28T02:56:23.590Z,98898.44
2022-09-28T02:59:04.697Z,98913.66
2022-09-28T03:01:44.648Z,98908.59
2022-09-28T03:04:24.194Z,98892.56
2022-09-28T03:07:02.086Z,98906.09
2022-09-28T03:09:37.940Z,98884.91
2022-09-28T03:12:12.725Z,98870.53
2022-09-28T03:14:43.433Z,98894.25
2022-09-28T03:17:15.757Z,98847.72
2022-09-28T03:19:45.790Z,98876.53
2022-09-28T03:22:15.368Z,98892.59
2022-09-28T03:24:44.901Z,98901.84
2022-09-28T03:27:14.513Z,98862.13
2022-09-28T03:29:44.060Z,98874.78
2022-09-28T03:32:16.378Z,98883.25
2022-09-28T03:34:46.321Z,98873.16
2022-09-28T03:37:15.955Z,98888.38
2022-09-28T03:39:45.837Z,98886.69
2022-09-28T03:42:15.750Z,98893.44
2022-09-28T03:44:49.878Z,98898.53
2022-09-28T03:47:23.036Z,98895.97
2022-09-28T03:49:52.706Z,98898.50
2022-09-28T03:52:22.329Z,98881.56
2022-09-28T03:54:51.985Z,98889.16
2022-09-28T03:57:21.580Z,98885.81
2022-09-28T03:59:51.868Z,98862.09
2022-09-28T04:02:24.416Z,98888.31
2022-09-28T04:04:54.102Z,98873.06
2022-09-28T04:07:26.917Z,98890.84
2022-09-28T04:09:59.845Z,98891.66
2022-09-28T04:12:29.455Z,98861.19
2022-09-28T04:14:58.994Z,98811.28
2022-09-28T04:17:35.491Z,98846.81
2022-09-28T04:20:09.764Z,98849.44
2022-09-28T04:22:46.683Z,98878.22
2022-09-28T04:25:16.281Z,98870.56
2022-09-28T04:27:58.448Z,98889.19
2022-09-28T04:30:28.168Z,98882.50
2022-09-28T04:33:00.301Z,98893.50
2022-09-28T04:35:32.096Z,98808.88
2022-09-28T04:38:01.740Z,98844.41
2022-09-28T04:40:31.519Z,98865.66
2022-09-28T04:43:01.335Z,98864.78
2022-09-28T04:45:30.999Z,98879.19
2022-09-28T04:48:11.799Z,98898.66
2022-09-28T04:51:05.077Z,98891.88
2022-09-28T04:53:35.288Z,98873.22
2022-09-28T04:56:07.358Z,98891.00
2022-09-28T04:58:38.584Z,98893.53
2022-09-28T05:01:10.738Z,98897.78
2022-09-28T05:04:01.561Z,98850.38
2022-09-28T05:06:40.299Z,98891.03
2022-09-28T05:09:11.841Z,98885.03
2022-09-28T05:11:42.081Z,98891.78
2022-09-28T05:14:17.669Z,98893.50
2022-09-28T05:16:47.667Z,98896.88
2022-09-28T05:19:32.108Z,98894.31
2022-09-28T05:22:11.464Z,98888.41
2022-09-28T05:24:47.524Z,98842.69
2022-09-28T05:27:17.769Z,98880.84
2022-09-28T05:29:55.507Z,98905.38
2022-09-28T05:32:45.395Z,98883.34
2022-09-28T05:35:27.805Z,98906.16
2022-09-28T05:37:57.625Z,98903.66
2022-09-28T05:40:27.425Z,98902.81
2022-09-28T05:43:01.935Z,98884.13
2022-09-28T05:45:32.081Z,98896.03
2022-09-28T05:48:02.879Z,98907.03
2022-09-28T05:50:35.076Z,98888.38
2022-09-28T05:53:08.223Z,98906.13
2022-09-28T05:55:40.605Z,98886.66
2022-09-28T05:58:11.348Z,98902.78
2022-09-28T06:00:42.981Z,98902.81
2022-09-28T06:03:17.273Z,98898.53
2022-09-28T06:05:51.375Z,98880.78
2022-09-28T06:08:23.091Z,98918.00
2022-09-28T06:11:05.012Z,98887.53
2022-09-28T06:13:35.620Z,98909.47
2022-09-28T06:16:07.933Z,98911.16
2022-09-28T06:18:38.978Z,98886.59
2022-09-28T06:21:18.082Z,98906.06
2022-09-28T06:23:50.133Z,98906.09
2022-09-28T06:26:22.075Z,98920.50
2022-09-28T06:28:56.002Z,98904.47
2022-09-28T06:31:26.675Z,98919.66
2022-09-28T06:33:58.709Z,98936.53
2022-09-28T06:36:31.259Z,98934.81
2022-09-28T06:39:00.968Z,98924.69
2022-09-28T06:41:32.335Z,98935.66
2022-09-28T06:44:04.689Z,98929.72
2022-09-28T06:47:07.640Z,98924.72
2022-09-28T06:50:12.165Z,98927.28
2022-09-28T06:52:59.256Z,98880.75
2022-09-28T06:55:49.284Z,98941.69
2022-09-28T06:58:22.445Z,98925.56
2022-09-28T07:00:54.474Z,98917.94
2022-09-28T07:03:25.399Z,98945.00
2022-09-28T07:06:15.133Z,98949.28
2022-09-28T07:09:32.431Z,98935.78
2022-09-28T07:12:19.818Z,98929.84
2022-09-28T07:15:05.046Z,98897.66
2022-09-28T07:17:47.622Z,98954.28
2022-09-28T07:20:25.142Z,98964.56
2022-09-28T07:22:56.681Z,98877.34
2022-09-28T07:25:32.445Z,98969.56
2022-09-28T07:28:25.484Z,98965.41
2022-09-28T07:31:13.863Z,98959.53
2022-09-28T07:34:04.325Z,98976.47
2022-09-28T07:36:58.889Z,98980.69
2022-09-28T07:39:28.703Z,98990.00
2022-09-28T07:42:02.613Z,98985.69
2022-09-28T07:44:33.790Z,98993.38
2022-09-28T07:47:03.357Z,98985.75
2022-09-28T07:50:01.624Z,98993.44
2022-09-28T07:52:43.186Z,98999.38
2022-09-28T07:55:41.789Z,99006.19
2022-09-28T07:58:19.419Z,99010.38
2022-09-28T08:01:24.315Z,99002.78
2022-09-28T08:03:56.145Z,98974.00
2022-09-28T08:06:26.010Z,98990.06
2022-09-28T08:08:56.955Z,98985.03
2022-09-28T08:11:36.293Z,98996.03
2022-09-28T08:14:27.241Z,99015.59
2022-09-28T08:17:04.780Z,99013.09
2022-09-28T08:19:57.871Z,99015.66
2022-09-28T08:22:30.344Z,99005.47
2022-09-28T08:24:59.872Z,98988.56
2022-09-28T08:27:29.456Z,99034.28
2022-09-28T08:30:01.620Z,99026.66
2022-09-28T08:32:42.669Z,99027.44
2022-09-28T08:35:41.965Z,99024.94
2022-09-28T08:38:20.410Z,99031.69
2022-09-28T08:41:17.772Z,99026.56
2022-09-28T08:44:24.043Z,99032.34
2022-09-28T08:47:30.677Z,99012.84
2022-09-28T08:50:23.176Z,99034.00
2022-09-28T08:53:24.909Z,99048.34
2022-09-28T08:56:13.517Z,99045.81
2022-09-28T08:58:48.245Z,99041.75
2022-09-28T09:01:22.361Z,99052.69
2022-09-28T09:03:54.633Z,99019.72
2022-09-28T09:07:03.727Z,99052.75
2022-09-28T09:09:50.753Z,99045.97
2022-09-28T09:12:27.005Z,99034.91
2022-09-28T09:15:20.269Z,99061.13
2022-09-28T09:18:03.475Z,99023.00
2022-09-28T09:20:58.412Z,99056.88
2022-09-28T09:23:40.097Z,99068.59
2022-09-28T09:26:24.807Z,99074.50
2022-09-28T09:29:23.026Z,99069.34
2022-09-28T09:32:14.149Z,99058.47
2022-09-28T09:35:14.694Z,99022.91
2022-09-28T09:38:17.434Z,99078.06
2022-09-28T09:41:28.051Z,99069.66
2022-09-28T09:44:38.970Z,99067.25
2022-09-28T09:47:40.328Z,99089.28
2022-09-28T09:50:32.405Z,99074.84
2022-09-28T09:53:16.356Z,99079.88
2022-09-28T09:55:50.540Z,99095.94
2022-09-28T09:58:34.313Z,99096.69
2022-09-28T10:01:21.704Z,99097.66
2022-09-28T10:04:23.543Z,99090.03
2022-09-28T10:07:00.290Z,99088.34
2022-09-28T10:09:37.450Z,99106.94
2022-09-28T10:12:24.688Z,99109.50
2022-09-28T10:14:55.308Z,99102.66
2022-09-28T10:17:29.299Z,99096.78
2022-09-28T10:20:25.635Z,99101.00
2022-09-28T10:23:22.732Z,99089.84
2022-09-28T10:25:57.591Z,99091.47
2022-09-28T10:28:36.602Z,99083.03
2022-09-28T10:31:36.925Z,99092.31
2022-09-28T10:34:14.244Z,99101.59
2022-09-28T10:36:51.013Z,99104.16
2022-09-28T10:39:30.877Z,99103.22
2022-09-28T10:42:08.782Z,99076.91
2022-09-28T10:44:52.736Z,99099.69
2022-09-28T10:47:34.036Z,99114.25
2022-09-28T10:50:14.093Z,99127.94
2022-09-28T10:52:46.653Z,99121.91
2022-09-28T10:55:37.415Z,99129.47
2022-09-28T10:58:29.099Z,99129.31
2022-09-28T11:01:06.313Z,99100.53
2022-09-28T11:03:37.325Z,99128.56
2022-09-28T11:06:11.139Z,99131.97
2022-09-28T11:08:46.265Z,99130.31
2022-09-28T11:11:22.610Z,99121.91
2022-09-28T11:14:04.395Z,99138.13
2022-09-28T11:16:38.775Z,99133.06
2022-09-28T11:19:30.221Z,99141.56
2022-09-28T11:22:00.878Z,99113.69
2022-09-28T11:24:37.362Z,99106.91
2022-09-28T11:27:07.440Z,99091.63
2022-09-28T11:29:45.439Z,99106.91
2022-09-28T11:32:27.878Z,99138.19
2022-09-28T11:35:32.099Z,99147.59
2022-09-28T11:38:17.579Z,99106.03
2022-09-28T11:41:26.959Z,99116.34
2022-09-28T11:44:17.082Z,99145.31
2022-09-28T11:46:59.843Z,99103.81
2022-09-28T11:49:36.609Z,99139.34
2022-09-28T11:52:10.860Z,99140.25
2022-09-28T11:54:47.453Z,99146.13
2022-09-28T11:57:23.365Z,99155.44
2022-09-28T12:00:00.403Z,99150.25
2022-09-28T12:02:39.537Z,99150.13
2022-09-28T12:05:21.083Z,99153.44
2022-09-28T12:07:58.023Z,99155.84
2022-09-28T12:11:00.899Z,99166.03
2022-09-28T12:13:54.025Z,99111.72
2022-09-28T12:17:05.060Z,99137.88
2022-09-28T12:19:28.165Z,99169.94
2022-09-28T12:22:04.759Z,99163.13
2022-09-28T12:24:40.139Z,99152.88
2022-09-28T12:27:18.112Z,99164.75
2022-09-28T12:29:56.048Z,99168.25
2022-09-28T12:32:35.635Z,99124.97
2022-09-28T12:35:14.894Z,99156.22
2022-09-28T12:38:01.187Z,99148.66
2022-09-28T12:40:50.965Z,99138.44
2022-09-28T12:43:43.234Z,99157.91
2022-09-28T12:46:37.562Z,99146.91
2022-09-28T12:52:30.633Z,99154.47
2022-09-28T12:55:24.585Z,99159.56
2022-09-28T12:58:18.845Z,99168.75
2022-09-28T13:00:59.769Z,99166.94
2022-09-28T13:04:13.303Z,99159.31
2022-09-28T13:07:05.709Z,99172.84
2022-09-28T13:09:50.681Z,99161.88
2022-09-28T13:12:35.136Z,99138.16
2022-09-28T13:15:36.578Z,99175.38
2022-09-28T13:18:20.946Z,99163.56
2022-09-28T13:21:06.707Z,99176.13
2022-09-28T13:23:40.468Z,99182.00
2022-09-28T13:26:22.432Z,99176.91
2022-09-28T13:28:55.491Z,99163.25
2022-09-28T13:31:33.193Z,99131.88
2022-09-28T13:34:07.473Z,99156.53
2022-09-28T13:36:47.989Z,99120.09
2022-09-28T13:39:55.118Z,99177.53
2022-09-28T13:43:02.455Z,99186.84
2022-09-28T13:45:51.884Z,99186.78
2022-09-28T13:48:25.785Z,99183.28
2022-09-28T13:51:22.577Z,99183.16
2022-09-28T13:54:19.011Z,99171.28
2022-09-28T13:56:57.575Z,99180.59
2022-09-28T13:59:32.900Z,99185.63
2022-09-28T14:02:07.632Z,99179.78
2022-09-28T14:04:57.656Z,99195.88
2022-09-28T14:10:24.625Z,99191.69
2022-09-28T14:12:55.968Z,99200.94
2022-09-28T14:15:48.142Z,99198.38
2022-09-28T14:18:31.563Z,99172.97
2022-09-28T14:21:37.742Z,99143.28
2022-09-28T14:24:20.149Z,99200.00
2022-09-28T14:27:22.147Z,99178.16
2022-09-28T14:29:58.186Z,99196.81
2022-09-28T14:32:37.068Z,99197.84
2022-09-28T14:35:09.145Z,99208.25
2022-09-28T14:37:54.996Z,99189.66
2022-09-28T14:40:44.791Z,99205.13
2022-09-28T14:43:25.117Z,99214.22
2022-09-28T14:46:25.703Z,99206.22
2022-09-28T14:49:01.740Z,99216.50
2022-09-28T14:52:02.205Z,99197.22
2022-09-28T14:54:41.025Z,99197.56
2022-09-28T14:57:19.561Z,99186.50
2022-09-28T14:59:51.008Z,99221.19
2022-09-28T15:02:33.141Z,99213.53
2022-09-28T15:05:18.485Z,99212.78
2022-09-28T15:07:51.838Z,99205.16
2022-09-28T15:10:31.392Z,99208.56
2022-09-28T15:13:05.422Z,99200.97
2022-09-28T15:15:40.153Z,99217.03
2022-09-28T15:18:33.308Z,99211.06
2022-09-28T15:21:06.971Z,99191.56
2022-09-28T15:23:38.828Z,99202.53
2022-09-28T15:26:22.481Z,99217.81
2022-09-28T15:28:52.247Z,99211.06
2022-09-28T15:31:26.360Z,99210.03
2022-09-28T15:34:09.657Z,99212.50
2022-09-28T15:36:46.475Z,99216.66
2022-09-28T15:39:21.249Z,99217.59
2022-09-28T15:41:53.587Z,99225.97
2022-09-28T15:44:35.238Z,99218.28
2022-09-28T15:47:13.874Z,99209.09
2022-09-28T15:49:48.717Z,99219.16
2022-09-28T15:52:34.007Z,99206.63
2022-09-28T15:55:09.393Z,99227.09
2022-09-28T15:57:42.053Z,99237.53
2022-09-28T16:00:28.298Z,99224.09
2022-09-28T16:03:03.723Z,99233.41
2022-09-28T16:05:46.700Z,99230.97
2022-09-28T16:08:25.107Z,99241.19
2022-09-28T16:11:05.066Z,99236.94
2022-09-28T16:13:37.140Z,99222.63
2022-09-28T16:16:07.032Z,99243.84
2022-09-28T16:18:42.542Z,99237.06
2022-09-28T16:21:31.858Z,99254.13
2022-09-28T16:24:05.219Z,99257.50
2022-09-28T16:26:37.412Z,99249.91
2022-09-28T16:29:12.163Z,99251.56
2022-09-28T16:31:45.626Z,99255.88
2022-09-28T16:34:23.158Z,99219.47
2022-09-28T16:36:53.932Z,99247.59
2022-09-28T16:39:27.374Z,99273.94
2022-09-28T16:42:05.073Z,99234.00
2022-09-28T16:44:36.475Z,99263.72
2022-09-28T16:47:06.300Z,99252.78
2022-09-28T16:49:37.193Z,99273.13
2022-09-28T16:52:12.414Z,99269.72
2022-09-28T16:54:59.172Z,99232.38
2022-09-28T16:57:29.830Z,99258.72
2022-09-28T16:59:59.993Z,99263.03
2022-09-28T17:02:45.595Z,99274.06
2022-09-28T17:05:16.374Z,99266.47
2022-09-28T17:07:47.487Z,99276.63
2022-09-28T17:10:26.767Z,99275.72
2022-09-28T17:12:57.636Z,99279.09
2022-09-28T17:15:28.547Z,99267.16
2022-09-28T17:17:59.658Z,99281.38
2022-09-28T17:20:31.596Z,99266.19
2022-09-28T17:23:03.595Z,99214.56
2022-09-28T17:25:36.212Z,99199.31
2022-09-28T17:28:07.571Z,99295.19
2022-09-28T17:30:37.879Z,99282.56
2022-09-28T17:33:08.850Z,99281.91
2022-09-28T17:35:39.930Z,99287.03
2022-09-28T17:38:13.743Z,99284.41
2022-09-28T17:40:48.292Z,99291.16
2022-09-28T17:43:18.316Z,99282.03
2022-09-28T17:45:50.438Z,99293.88
2022-09-28T17:48:24.424Z,99315.19
2022-09-28T17:50:55.071Z,99299.03
2022-09-28T17:53:25.985Z,99279.50
2022-09-28T17:55:59.215Z,99282.84
2022-09-28T17:58:29.182Z,99316.03
2022-09-28T18:01:00.870Z,99306.69
2022-09-28T18:03:30.773Z,99307.63
2022-09-28T18:06:05.131Z,99298.31
2022-09-28T18:08:36.932Z,99316.97
2022-09-28T18:11:10.805Z,99313.59
2022-09-28T18:13:42.381Z,99319.56
2022-09-28T18:16:12.639Z,99321.31
2022-09-28T18:18:43.654Z,99327.22
2022-09-28T18:21:18.342Z,99327.22
2022-09-28T18:23:49.171Z,99333.16
2022-09-28T18:26:21.753Z,99324.66
2022-09-28T18:28:51.576Z,99328.09
2022-09-28T18:31:21.480Z,99322.97
2022-09-28T18:33:52.352Z,99324.69
2022-09-28T18:36:23.108Z,99334.91
2022-09-28T18:38:53.187Z,99333.19
2022-09-28T18:41:26.542Z,99351.91
2022-09-28T18:44:00.887Z,99350.19
2022-09-28T18:46:36.093Z,99340.88
2022-09-28T18:49:07.494Z,99357.84
2022-09-28T18:51:37.336Z,99347.69
2022-09-28T18:54:07.696Z,99346.00
2022-09-28T18:56:41.141Z,99325.59
2022-09-28T18:59:12.909Z,99351.09
2022-09-28T19:01:44.321Z,99345.13
2022-09-28T19:04:15.515Z,99342.63
2022-09-28T19:06:51.682Z,99364.69
2022-09-28T19:09:24.633Z,99354.50
2022-09-28T19:11:58.071Z,99339.22
2022-09-28T19:14:29.044Z,99345.19
2022-09-28T19:17:00.892Z,99369.81
2022-09-28T19:19:31.405Z,99364.72
2022-09-28T19:22:02.325Z,99362.16
2022-09-28T19:24:32.084Z,99346.84
2022-09-28T19:27:04.478Z,99364.72
2022-09-28T19:29:34.352Z,99361.28
2022-09-28T19:32:04.727Z,99343.47
2022-09-28T19:34:34.518Z,99351.97
2022-09-28T19:37:06.308Z,99356.19
2022-09-28T19:39:36.067Z,99361.31
2022-09-28T19:42:12.031Z,99362.13
2022-09-28T19:44:46.392Z,99362.13
2022-09-28T19:47:17.337Z,99367.25
2022-09-28T19:49:48.110Z,99368.06
2022-09-28T19:52:19.006Z,99363.84
2022-09-28T19:54:54.470Z,99367.22
2022-09-28T19:57:27.612Z,99369.78
2022-09-28T20:00:03.542Z,99358.75
2022-09-28T20:02:36.890Z,99364.72
2022-09-28T20:05:10.997Z,99364.72
2022-09-28T20:07:41.931Z,99377.47
2022-09-28T20:10:13.000Z,99372.34
2022-09-28T20:12:46.377Z,99380.88
2022-09-28T20:15:17.614Z,99362.19
2022-09-28T20:17:47.434Z,99360.50
2022-09-28T20:20:18.614Z,99362.16
2022-09-28T20:22:48.452Z,99370.66
2022-09-28T20:25:18.592Z,99342.63
2022-09-28T20:27:51.063Z,99390.22
2022-09-28T20:30:20.918Z,99381.72
2022-09-28T20:32:50.690Z,99380.88
2022-09-28T20:35:32.087Z,99386.84
2022-09-28T20:38:08.082Z,99323.94
2022-09-28T20:40:38.107Z,99387.69
2022-09-28T20:43:13.241Z,99357.06
2022-09-28T20:45:46.375Z,99387.66
2022-09-28T20:48:16.445Z,99385.13
2022-09-28T20:50:48.244Z,99361.31
2022-09-28T20:53:18.989Z,99372.38
2022-09-28T20:55:48.803Z,99406.34
2022-09-28T20:58:22.233Z,99392.78
2022-09-28T21:00:52.011Z,99374.06
2022-09-28T21:03:21.823Z,99399.56
2022-09-28T21:05:53.540Z,99356.22
2022-09-28T21:08:25.269Z,99402.97
2022-09-28T21:10:56.475Z,99402.97
2022-09-28T21:13:29.947Z,99392.75
2022-09-28T21:16:04.639Z,99402.97
2022-09-28T21:18:34.518Z,99385.94
2022-09-28T21:21:08.016Z,99380.84
2022-09-28T21:23:38.878Z,99381.69
2022-09-28T21:26:10.623Z,99391.06
2022-09-28T21:28:44.779Z,99410.63
2022-09-28T21:31:18.413Z,99400.41
2022-09-28T21:33:50.193Z,99411.44
2022-09-28T21:36:21.261Z,99408.03
2022-09-28T21:38:52.137Z,99399.53
2022-09-28T21:41:22.964Z,99401.22
2022-09-28T21:43:57.498Z,99395.28
2022-09-28T21:46:33.498Z,99413.13
2022-09-28T21:49:04.928Z,99414.81
2022-09-28T21:51:35.376Z,99413.94
2022-09-28T21:54:05.174Z,99427.56
2022-09-28T21:56:38.378Z,99425.84
2022-09-28T21:59:11.863Z,99416.50
2022-09-28T22:01:44.434Z,99415.63
2022-09-28T22:04:14.265Z,99431.78
2022-09-28T22:06:45.119Z,99433.50
2022-09-28T22:09:18.382Z,99416.47
2022-09-28T22:11:49.122Z,99406.22
2022-09-28T22:14:21.537Z,99379.88
2022-09-28T22:16:51.322Z,99408.75
2022-09-28T22:19:24.408Z,99418.16
2022-09-28T22:21:55.242Z,99408.78
2022-09-28T22:24:25.067Z,99430.84
2022-09-28T22:26:54.828Z,99416.41
2022-09-28T22:29:27.320Z,99433.44
2022-09-28T22:32:02.208Z,99423.19
2022-09-28T22:34:32.797Z,99435.09
2022-09-28T22:37:03.439Z,99427.44
2022-09-28T22:39:37.534Z,99434.22
2022-09-28T22:42:07.930Z,99432.53
2022-09-28T22:44:40.560Z,99443.56
2022-09-28T22:47:10.309Z,99435.06
2022-09-28T22:49:40.037Z,99435.03
2022-09-28T22:52:09.794Z,99442.69
2022-09-28T22:54:40.552Z,99424.78
2022-09-28T22:57:10.271Z,99440.09
2022-09-28T22:59:42.632Z,99446.88
2022-09-28T23:02:12.373Z,99439.22
2022-09-28T23:04:42.094Z,99438.31
2022-09-28T23:07:11.836Z,99434.97
2022-09-28T23:09:41.613Z,99440.09
2022-09-28T23:12:11.327Z,99438.31
2022-09-28T23:14:43.658Z,99433.22
2022-09-28T23:17:13.374Z,99441.69
2022-09-28T23:19:43.136Z,99434.84
2022-09-28T23:22:12.879Z,99454.31
2022-09-28T23:24:42.643Z,99441.53
2022-09-28T23:27:12.387Z,99436.34
2022-09-28T23:29:46.908Z,99455.13
2022-09-28T23:32:16.679Z,99432.13
2022-09-28T23:34:46.648Z,99445.69
2022-09-28T23:37:16.374Z,99451.66
2022-09-28T23:39:46.259Z,99461.88
2022-09-28T23:42:16.044Z,99454.28
2022-09-28T23:44:48.380Z,99396.41
2022-09-28T23:47:18.248Z,99453.44
2022-09-28T23:49:47.972Z,99436.44
2022-09-28T23:52:17.752Z,99456.81
2022-09-28T23:54:47.510Z,99455.13
2022-09-28T23:57:17.271Z,99462.75
2022-09-28T23:59:49.664Z,99453.47
